Time;durP1;ratioP1;P1;durP2;ratioP2;P2;SDS_P1;SDS_P2;PMS_P1;PMS_P2;Temp;Humidity;BMP_temperature;BMP_pressure;BME280_temperature;BME280_humidity;BME280_pressure;Samples;Min_cycle;Max_cycle;Signal;HPM_P1;HPM_P2
2023/06/18 00:00:48;;;;;;;;;;;;;;;-146.25;100.00;52100.56;2081684;28;20031;-66
2023/06/18 00:01:49;;;;;;;;;;;;;;;-146.25;100.00;52088.41;2080789;28;35328;-65
2023/06/18 00:02:51;;;;;;;;;;;;;;;-146.25;100.00;52082.31;2081212;28;35610;-66
2023/06/18 00:03:53;;;;;;;;;;;;;;;-146.25;100.00;52068.13;2080553;28;33384;-66
2023/06/18 00:04:55;;;;;;;;;;;;;;;-146.25;100.00;52076.22;2081197;28;33622;-65
2023/06/18 00:05:56;;;;;;;;;;;;;;;-146.25;100.00;52088.41;2081412;28;19921;-65
2023/06/18 00:06:58;;;;;;;;;;;;;;;-146.25;100.00;52084.34;2080134;28;39892;-66
2023/06/18 00:07:59;;;;;;;;;;;;;;;-146.25;100.00;52114.75;2080171;28;31818;-65
2023/06/18 00:09:01;;;;;;;;;;;;;;;-146.25;100.00;52100.56;2081800;28;20044;-66
2023/06/18 00:10:04;;;;;;;;;;;;;;;-146.25;100.00;52100.56;2080439;28;36822;-65
2023/06/18 00:11:05;;;;;;;;;;;;;;;-146.25;100.00;52078.25;2081351;28;33977;-66
2023/06/18 00:12:10;;;;;;;;;;;;;;;-146.25;100.00;52072.19;2080772;28;32079;-66
2023/06/18 00:13:12;;;;;;;;;;;;;;;-146.25;100.00;52078.25;2081895;28;19921;-66
2023/06/18 00:14:14;;;;;;;;;;;;;;;-146.25;100.00;52076.22;2089429;28;19920;-65
2023/06/18 00:15:18;;;;;;;;;;;;;;;-146.25;100.00;52110.69;2088686;28;35385;-65
2023/06/18 00:16:19;;;;;;;;;;;;;;;-146.25;100.00;52112.72;2080614;28;33088;-66
2023/06/18 00:17:22;;;;;;;;;;;;;;;-146.25;100.00;52092.44;2081248;28;30830;-65
2023/06/18 00:18:23;;;;;;;;;;;;;;;-146.25;100.00;52110.69;2080799;28;37357;-66
2023/06/18 00:19:25;;;;;;;;;;;;;;;-146.25;100.00;52096.50;2081367;28;32021;-65
2023/06/18 00:20:27;;;;;;;;;;;;;;;-146.25;100.00;52086.38;2080416;28;21974;-66
2023/06/18 00:21:30;;;;;;;;;;;;;;;-146.25;100.00;52100.56;2080087;28;35388;-66
2023/06/18 00:22:33;;;;;;;;;;;;;;;-146.25;100.00;52100.56;2081280;28;19918;-66
2023/06/18 00:23:35;;;;;;;;;;;;;;;-146.25;100.00;52120.84;2080997;28;35746;-66
2023/06/18 00:24:38;;;;;;;;;;;;;;;-146.25;100.00;52108.66;2081526;28;19917;-66
2023/06/18 00:25:42;;;;;;;;;;;;;;;-146.25;100.00;52116.78;2080877;28;38244;-66
2023/06/18 00:26:44;;;;;;;;;;;;;;;-146.25;100.00;52098.53;2088103;28;36064;-66
2023/06/18 00:27:47;;;;;;;;;;;;;;;-146.25;100.00;52094.47;2080569;28;19925;-66
2023/06/18 00:28:48;;;;;;;;;;;;;;;-146.25;100.00;52106.66;2080097;28;26533;-66
2023/06/18 00:29:50;;;;;;;;;;;;;;;-146.25;100.00;52088.41;2081324;28;30969;-66
2023/06/18 00:30:53;;;;;;;;;;;;;;;-146.25;100.00;52106.66;2081225;28;19976;-66
2023/06/18 00:31:55;;;;;;;;;;;;;;;-146.25;100.00;52092.44;2081684;28;19917;-66
2023/06/18 00:32:58;;;;;;;;;;;;;;;-146.25;100.00;52124.91;2080289;28;25177;-66
2023/06/18 00:34:06;;;;;;;;;;;;;;;-146.25;100.00;52084.34;2081381;28;20618;-67
2023/06/18 00:35:08;;;;;;;;;;;;;;;-146.25;100.00;52092.44;2087443;28;31194;-66
2023/06/18 00:36:10;;;;;;;;;;;;;;;-146.25;100.00;52104.63;2088644;28;19928;-66
2023/06/18 00:37:12;;;;;;;;;;;;;;;-146.25;100.00;52076.22;2089101;28;19976;-65
2023/06/18 00:38:16;;;;;;;;;;;;;;;-146.25;100.00;52092.44;2088661;28;27361;-66
2023/06/18 00:39:22;;;;;;;;;;;;;;;-146.25;100.00;52068.13;2080525;28;19925;-66
2023/06/18 00:40:23;;;;;;;;;;;;;;;-146.25;100.00;52108.66;2072491;28;25685;-66
2023/06/18 00:41:27;;;;;;;;;;;;;;;-146.25;100.00;52128.94;2072424;28;19928;-66
2023/06/18 00:42:29;;;;;;;;;;;;;;;-146.25;100.00;52104.63;2080291;28;28604;-65
2023/06/18 00:43:31;;;;;;;;;;;;;;;-146.25;100.00;52104.63;2081248;28;19913;-66
2023/06/18 00:44:33;;;;;;;;;;;;;;;-146.25;100.00;52128.94;2081430;28;19917;-66
2023/06/18 00:45:35;;;;;;;;;;;;;;;-146.25;100.00;52100.56;2080768;28;32222;-66
2023/06/18 00:46:37;;;;;;;;;;;;;;;-146.25;100.00;52100.56;2081070;28;33219;-65
2023/06/18 00:47:44;;;;;;;;;;;;;;;-146.25;100.00;52137.06;2080838;28;29025;-66
2023/06/18 00:48:47;;;;;;;;;;;;;;;-146.25;100.00;52090.44;2081544;28;25156;-66
2023/06/18 00:49:50;;;;;;;;;;;;;;;-146.25;100.00;52128.94;2080892;28;19925;-66
2023/06/18 00:50:53;;;;;;;;;;;;;;;-146.25;100.00;52096.50;2081343;28;19929;-66
2023/06/18 00:51:58;;;;;;;;;;;;;;;-146.25;100.00;52086.38;2080221;28;29496;-66
2023/06/18 00:53:00;;;;;;;;;;;;;;;-146.25;100.00;52072.19;2081337;28;19964;-66
2023/06/18 00:54:02;;;;;;;;;;;;;;;-146.25;100.00;52070.16;2080758;28;30175;-66
2023/06/18 00:55:04;;;;;;;;;;;;;;;-146.25;100.00;52086.38;2081056;28;30239;-66
2023/06/18 00:56:07;;;;;;;;;;;;;;;-146.25;100.00;52100.56;2089407;28;19921;-65
2023/06/18 00:57:08;;;;;;;;;;;;;;;-146.25;100.00;52126.91;2088281;28;28203;-66
2023/06/18 00:58:13;;;;;;;;;;;;;;;-146.25;100.00;52084.34;2081081;28;20055;-66
2023/06/18 00:59:21;;;;;;;;;;;;;;;-146.25;100.00;52120.84;2081303;28;19932;-66
2023/06/18 01:00:24;;;;;;;;;;;;;;;-146.25;100.00;52114.75;2080519;28;19926;-65
2023/06/18 01:01:25;;;;;;;;;;;;;;;-146.25;100.00;52058.00;2080608;28;24333;-66
2023/06/18 01:02:28;;;;;;;;;;;;;;;-146.25;100.00;52135.03;2080437;28;29623;-66
2023/06/18 01:03:32;;;;;;;;;;;;;;;-146.25;100.00;52118.81;2080606;28;32968;-66
2023/06/18 01:04:37;;;;;;;;;;;;;;;-146.25;100.00;52112.72;2080186;28;20842;-66
2023/06/18 01:05:39;;;;;;;;;;;;;;;-146.25;100.00;52102.59;2080348;28;31954;-65
2023/06/18 01:06:41;;;;;;;;;;;;;;;-146.25;100.00;52116.78;2088725;28;19921;-65
2023/06/18 01:07:47;;;;;;;;;;;;;;;-146.25;100.00;52104.63;2081174;28;20610;-65
2023/06/18 01:08:55;;;;;;;;;;;;;;;-146.25;100.00;52108.66;2080606;28;35804;-66
2023/06/18 01:09:57;;;;;;;;;;;;;;;-146.25;100.00;52116.78;2081552;28;20075;-66
2023/06/18 01:11:05;;;;;;;;;;;;;;;-146.25;100.00;52074.22;2080592;28;30851;-66
2023/06/18 01:12:07;;;;;;;;;;;;;;;-146.25;100.00;52116.78;2080480;28;20808;-65
2023/06/18 01:13:14;;;;;;;;;;;;;;;-146.25;100.00;52104.63;2080534;28;20213;-66
2023/06/18 01:14:17;;;;;;;;;;;;;;;-146.25;100.00;52139.09;2079916;28;37959;-65
2023/06/18 01:15:19;;;;;;;;;;;;;;;-146.25;100.00;52116.78;2080171;28;22628;-65
2023/06/18 01:16:24;;;;;;;;;;;;;;;-146.25;100.00;52120.84;2080444;28;20258;-66
2023/06/18 01:17:29;;;;;;;;;;;;;;;-146.25;100.00;52084.34;2080761;28;20043;-65
2023/06/18 01:18:35;;;;;;;;;;;;;;;-146.25;100.00;52137.06;2081177;28;19929;-66
2023/06/18 01:19:45;;;;;;;;;;;;;;;-146.25;100.00;52102.59;2080914;28;29795;-66
2023/06/18 01:20:49;;;;;;;;;;;;;;;-146.25;100.00;52102.59;2088393;28;20022;-66
2023/06/18 01:21:56;;;;;;;;;;;;;;;-146.25;100.00;52096.50;2088771;28;20686;-66
2023/06/18 01:23:04;;;;;;;;;;;;;;;-146.25;100.00;52116.78;2080419;28;34287;-66
2023/06/18 01:24:11;;;;;;;;;;;;;;;-146.25;100.00;52108.66;2081796;28;20627;-66
2023/06/18 01:25:16;;;;;;;;;;;;;;;-146.25;100.00;52068.13;2081157;28;19929;-66
2023/06/18 01:26:20;;;;;;;;;;;;;;;-146.25;100.00;52137.06;2080264;28;23151;-66
2023/06/18 01:27:23;;;;;;;;;;;;;;;-146.25;100.00;52090.44;2080008;28;28575;-65
2023/06/18 01:28:29;;;;;;;;;;;;;;;-146.25;100.00;52068.13;2080465;28;35010;-66
2023/06/18 01:29:31;;;;;;;;;;;;;;;-146.25;100.00;52126.91;2080522;28;19928;-66
2023/06/18 01:30:39;;;;;;;;;;;;;;;-146.25;100.00;52106.66;2079926;28;29538;-64
2023/06/18 01:31:44;;;;;;;;;;;;;;;-146.25;100.00;52090.44;2080887;28;28866;-66
2023/06/18 01:32:46;;;;;;;;;;;;;;;-146.25;100.00;52143.13;2088497;28;19924;-65
2023/06/18 01:33:53;;;;;;;;;;;;;;;-146.25;100.00;52161.38;2080261;28;32184;-66
2023/06/18 01:34:55;;;;;;;;;;;;;;;-146.25;100.00;52116.78;2080628;28;28838;-67
2023/06/18 01:35:57;;;;;;;;;;;;;;;-146.25;100.00;52084.34;2080521;28;27485;-66
2023/06/18 01:37:09;;;;;;;;;;;;;;;-146.25;100.00;52084.34;2081049;28;19926;-66
2023/06/18 01:38:27;;;;;;;;;;;;;;;-146.25;100.00;52112.72;2080049;28;25643;-66
2023/06/18 01:39:37;;;;;;;;;;;;;;;-146.25;100.00;52116.78;2080700;28;20060;-66
2023/06/18 01:41:05;;;;;;;;;;;;;;;-146.25;100.00;52137.06;2081394;28;19928;-65
2023/06/18 01:42:16;;;;;;;;;;;;;;;-146.25;100.00;52106.66;2081122;28;19925;-66
2023/06/18 01:43:27;;;;;;;;;;;;;;;-146.25;100.00;52114.75;2081335;28;19925;-66
2023/06/18 01:44:30;;;;;;;;;;;;;;;-146.25;100.00;52102.59;2080682;28;33020;-66
2023/06/18 01:45:40;;;;;;;;;;;;;;;-146.25;100.00;52114.75;2087835;28;34429;-66
2023/06/18 01:46:45;;;;;;;;;;;;;;;-146.25;100.00;52141.13;2080545;28;27423;-66
2023/06/18 01:47:49;;;;;;;;;;;;;;;-146.25;100.00;52098.53;2079579;28;36102;-66
2023/06/18 01:48:56;;;;;;;;;;;;;;;-146.25;100.00;52108.66;2080897;28;24906;-66
2023/06/18 01:50:01;;;;;;;;;;;;;;;-146.25;100.00;52092.44;2080041;28;26463;-66
2023/06/18 01:51:06;;;;;;;;;;;;;;;-146.25;100.00;52139.09;2079651;28;27034;-66
2023/06/18 01:52:09;;;;;;;;;;;;;;;-146.25;100.00;52114.75;2080658;28;20993;-66
2023/06/18 01:53:15;;;;;;;;;;;;;;;-146.25;100.00;52100.56;2080618;28;31187;-65
2023/06/18 01:54:20;;;;;;;;;;;;;;;-146.25;100.00;52112.72;2080043;28;19968;-66
2023/06/18 01:55:23;;;;;;;;;;;;;;;-146.25;100.00;52096.50;2080027;28;26993;-65
2023/06/18 01:56:28;;;;;;;;;;;;;;;-146.25;100.00;52128.94;2079884;28;26038;-65
2023/06/18 01:57:32;;;;;;;;;;;;;;;-146.25;100.00;52120.84;2088489;28;19982;-65
2023/06/18 01:58:36;;;;;;;;;;;;;;;-146.25;100.00;52092.44;2088237;28;20036;-65
2023/06/18 01:59:43;;;;;;;;;;;;;;;-146.25;100.00;52143.13;2080225;28;19917;-65
2023/06/18 02:00:45;;;;;;;;;;;;;;;-146.25;100.00;52106.66;2075648;28;19925;-66
2023/06/18 02:01:47;;;;;;;;;;;;;;;-146.25;100.00;52074.22;2071573;28;30690;-65
2023/06/18 02:02:52;;;;;;;;;;;;;;;-146.25;100.00;52084.34;2071230;28;25330;-66
2023/06/18 02:03:54;;;;;;;;;;;;;;;-146.25;100.00;52124.91;2072511;28;27556;-65
2023/06/18 02:04:56;;;;;;;;;;;;;;;-146.25;100.00;52157.34;2072494;28;20592;-66
2023/06/18 02:05:58;;;;;;;;;;;;;;;-146.25;100.00;52135.03;2072867;28;19988;-66
2023/06/18 02:06:59;;;;;;;;;;;;;;;-146.25;100.00;52088.41;2071833;28;26720;-66
2023/06/18 02:08:01;;;;;;;;;;;;;;;-146.25;100.00;52098.53;2071795;28;30065;-65
2023/06/18 02:09:03;;;;;;;;;;;;;;;-146.25;100.00;52096.50;2071555;28;35204;-65
2023/06/18 02:10:08;;;;;;;;;;;;;;;-146.25;100.00;52108.66;2079929;28;19964;-66
2023/06/18 02:11:13;;;;;;;;;;;;;;;-146.25;100.00;52112.72;2072421;28;20064;-65
2023/06/18 02:12:14;;;;;;;;;;;;;;;-146.25;100.00;52078.25;2071470;28;36473;-66
2023/06/18 02:13:16;;;;;;;;;;;;;;;-146.25;100.00;52133.00;2071820;28;19929;-66
2023/06/18 02:14:18;;;;;;;;;;;;;;;-146.25;100.00;52104.63;2071216;28;30587;-66
2023/06/18 02:15:45;;;;;;;;;;;;;;;-146.25;100.00;52066.09;2080791;23;20293;31
2023/06/18 02:16:48;;;;;;;;;;;;;;;-146.25;100.00;52124.91;2076060;28;19929;-67
2023/06/18 02:17:51;;;;;;;;;;;;;;;-146.25;100.00;52155.31;2071896;28;19921;-67
2023/06/18 02:18:55;;;;;;;;;;;;;;;-146.25;100.00;52060.00;2071977;28;20781;-67
2023/06/18 02:19:56;;;;;;;;;;;;;;;-146.25;100.00;52139.09;2072270;28;27117;-66
2023/06/18 02:20:59;;;;;;;;;;;;;;;-146.25;100.00;52096.50;2072020;28;26981;-67
2023/06/18 02:22:01;;;;;;;;;;;;;;;-146.25;100.00;52114.75;2072594;28;19961;-66
2023/06/18 02:23:03;;;;;;;;;;;;;;;-146.25;100.00;52100.56;2071474;28;23705;-67
2023/06/18 02:24:04;;;;;;;;;;;;;;;-146.25;100.00;52112.72;2071828;28;19926;-67
2023/06/18 02:25:07;;;;;;;;;;;;;;;-146.25;100.00;52110.69;2071536;28;28646;-67
2023/06/18 02:26:08;;;;;;;;;;;;;;;-146.25;100.00;52124.91;2071618;28;27251;-67
2023/06/18 02:27:13;;;;;;;;;;;;;;;-146.25;100.00;52112.72;2072535;28;24885;-69
2023/06/18 02:28:15;;;;;;;;;;;;;;;-146.25;100.00;52090.44;2071670;28;19964;-67
2023/06/18 02:29:17;;;;;;;;;;;;;;;-146.25;100.00;52060.00;2071546;28;34187;-67
2023/06/18 02:30:20;;;;;;;;;;;;;;;-146.25;100.00;52128.94;2072188;28;27705;-67
2023/06/18 02:31:22;;;;;;;;;;;;;;;-146.25;100.00;52108.66;2072481;28;27874;-68
2023/06/18 02:32:24;;;;;;;;;;;;;;;-146.25;100.00;52098.53;2071655;28;20040;-66
2023/06/18 02:33:26;;;;;;;;;;;;;;;-146.25;100.00;52124.91;2071632;28;29646;-67
2023/06/18 02:34:28;;;;;;;;;;;;;;;-146.25;100.00;52088.41;2072027;28;32437;-67
2023/06/18 02:35:30;;;;;;;;;;;;;;;-146.25;100.00;52086.38;2072401;28;31964;-67
2023/06/18 02:36:32;;;;;;;;;;;;;;;-146.25;100.00;52096.50;2071828;28;25584;-67
2023/06/18 02:37:36;;;;;;;;;;;;;;;-146.25;100.00;52133.00;2072130;28;20730;-68
2023/06/18 02:38:38;;;;;;;;;;;;;;;-146.25;100.00;52090.44;2072231;28;20936;-68
2023/06/18 02:39:40;;;;;;;;;;;;;;;-146.25;100.00;52135.03;2071267;28;24126;-67
2023/06/18 02:40:41;;;;;;;;;;;;;;;-146.25;100.00;52122.88;2071757;28;20942;-68
2023/06/18 02:41:43;;;;;;;;;;;;;;;-146.25;100.00;52130.97;2072097;28;27196;-67
2023/06/18 02:42:48;;;;;;;;;;;;;;;-146.25;100.00;52128.94;2071084;28;26190;-68
2023/06/18 02:43:50;;;;;;;;;;;;;;;-146.25;100.00;52092.44;2063941;28;20909;-69
2023/06/18 02:44:52;;;;;;;;;;;;;;;-146.25;100.00;52080.28;2063405;28;29060;-68
2023/06/18 02:45:54;;;;;;;;;;;;;;;-146.25;100.00;52098.53;2071230;28;33866;-67
2023/06/18 02:46:55;;;;;;;;;;;;;;;-146.25;100.00;52104.63;2074463;28;30471;-67
2023/06/18 02:47:58;;;;;;;;;;;;;;;-146.25;100.00;52102.59;2071665;28;20000;-67
2023/06/18 02:49:00;;;;;;;;;;;;;;;-146.25;100.00;52092.44;2072165;28;20786;-68
2023/06/18 02:50:03;;;;;;;;;;;;;;;-146.25;100.00;52108.66;2072245;28;28337;-67
2023/06/18 02:51:05;;;;;;;;;;;;;;;-146.25;100.00;52068.13;2071090;28;20027;-69
2023/06/18 02:52:07;;;;;;;;;;;;;;;-146.25;100.00;52100.56;2071532;28;19937;-67
2023/06/18 02:53:08;;;;;;;;;;;;;;;-146.25;100.00;52090.44;2071514;28;19922;-68
2023/06/18 02:54:11;;;;;;;;;;;;;;;-146.25;100.00;52108.66;2063898;28;20787;-67
2023/06/18 02:55:13;;;;;;;;;;;;;;;-146.25;100.00;52112.72;2063675;28;19914;-68
2023/06/18 02:56:17;;;;;;;;;;;;;;;-146.25;100.00;52141.13;2062690;28;19945;-68
2023/06/18 02:57:18;;;;;;;;;;;;;;;-146.25;100.00;52120.84;2063350;28;21005;-68
2023/06/18 02:58:27;;;;;;;;;;;;;;;-146.25;100.00;52110.69;2063248;28;20331;-67
2023/06/18 02:59:30;;;;;;;;;;;;;;;-146.25;100.00;52112.72;2056165;28;19965;-68
2023/06/18 03:00:32;;;;;;;;;;;;;;;-146.25;100.00;52072.19;2063664;28;19914;-68
2023/06/18 03:01:33;;;;;;;;;;;;;;;-146.25;100.00;52100.56;2071569;28;19921;-68
2023/06/18 03:02:37;;;;;;;;;;;;;;;-146.25;100.00;52128.94;2063595;28;20841;-68
2023/06/18 03:03:41;;;;;;;;;;;;;;;-146.25;100.00;52118.81;2056193;28;19985;-68
2023/06/18 03:04:43;;;;;;;;;;;;;;;-146.25;100.00;52090.44;2055352;28;20102;-68
2023/06/18 03:05:46;;;;;;;;;;;;;;;-146.25;100.00;52100.56;2063669;28;19973;-68
2023/06/18 03:06:48;;;;;;;;;;;;;;;-146.25;100.00;52084.34;2063024;28;19922;-68
2023/06/18 03:07:50;;;;;;;;;;;;;;;-146.25;100.00;52133.00;2063735;28;19964;-68
2023/06/18 03:08:54;;;;;;;;;;;;;;;-146.25;100.00;52122.88;2071411;28;20834;-67
2023/06/18 03:09:57;;;;;;;;;;;;;;;-146.25;100.00;52072.19;2063597;28;19949;-68
2023/06/18 03:11:00;;;;;;;;;;;;;;;-146.25;100.00;52116.78;2055355;28;19930;-68
2023/06/18 03:12:05;;;;;;;;;;;;;;;-146.25;100.00;52082.31;2055892;28;19958;-70
2023/06/18 03:13:08;;;;;;;;;;;;;;;-146.25;100.00;52088.41;2055838;28;19927;-67
2023/06/18 03:14:20;;;;;;;;;;;;;;;-146.25;100.00;52120.84;2064794;28;19925;-68
2023/06/18 03:15:22;;;;;;;;;;;;;;;-146.25;100.00;52084.34;2071614;28;19942;-67
2023/06/18 03:16:23;;;;;;;;;;;;;;;-146.25;100.00;52112.72;2063740;28;19926;-68
2023/06/18 03:17:25;;;;;;;;;;;;;;;-146.25;100.00;52141.13;2063331;28;19922;-67
2023/06/18 03:18:27;;;;;;;;;;;;;;;-146.25;100.00;52100.56;2063581;28;20068;-68
2023/06/18 03:19:29;;;;;;;;;;;;;;;-146.25;100.00;52120.84;2063427;28;20152;-68
2023/06/18 03:20:31;;;;;;;;;;;;;;;-146.25;100.00;52120.84;2071674;28;19922;-67
2023/06/18 03:21:35;;;;;;;;;;;;;;;-146.25;100.00;52096.50;2063228;28;20822;-68
2023/06/18 03:22:38;;;;;;;;;;;;;;;-146.25;100.00;52096.50;2071543;28;19987;-68
2023/06/18 03:23:41;;;;;;;;;;;;;;;-146.25;100.00;52114.75;2063474;28;20747;-68
2023/06/18 03:24:43;;;;;;;;;;;;;;;-146.25;100.00;52104.63;2065767;28;24584;-68
2023/06/18 03:25:44;;;;;;;;;;;;;;;-146.25;100.00;52100.56;2063034;28;22740;-67
2023/06/18 03:26:51;;;;;;;;;;;;;;;-146.25;100.00;52086.38;2057058;28;19926;-68
2023/06/18 03:27:54;;;;;;;;;;;;;;;-146.25;100.00;52120.84;2056983;28;19922;-68
2023/06/18 03:28:59;;;;;;;;;;;;;;;-146.25;100.00;52098.53;2065453;28;19926;-68
2023/06/18 03:30:03;;;;;;;;;;;;;;;-146.25;100.00;52116.78;2072701;28;20049;-68
2023/06/18 03:31:09;;;;;;;;;;;;;;;-146.25;100.00;52092.44;2065157;28;19929;-68
2023/06/18 03:32:11;;;;;;;;;;;;;;;-146.25;100.00;52098.53;2056443;28;19930;-68
2023/06/18 03:33:17;;;;;;;;;;;;;;;-146.25;100.00;52092.44;2056958;28;19923;-68
2023/06/18 03:34:20;;;;;;;;;;;;;;;-146.25;100.00;52106.66;2056712;28;31933;-68
2023/06/18 03:35:23;;;;;;;;;;;;;;;-146.25;100.00;52092.44;2057784;28;20700;-68
2023/06/18 03:36:25;;;;;;;;;;;;;;;-146.25;100.00;52080.28;2064102;28;19926;-68
2023/06/18 03:37:27;;;;;;;;;;;;;;;-146.25;100.00;52100.56;2064910;28;19949;-67
2023/06/18 03:38:29;;;;;;;;;;;;;;;-146.25;100.00;52118.81;2056901;28;20089;-68
2023/06/18 03:39:35;;;;;;;;;;;;;;;-146.25;100.00;52066.09;2057095;28;19930;-68
2023/06/18 03:40:39;;;;;;;;;;;;;;;-146.25;100.00;52100.56;2056074;28;20359;-68
2023/06/18 03:41:44;;;;;;;;;;;;;;;-146.25;100.00;52128.94;2056879;28;20645;-68
2023/06/18 03:42:47;;;;;;;;;;;;;;;-146.25;100.00;52076.22;2064126;28;20774;-68
2023/06/18 03:43:55;;;;;;;;;;;;;;;-146.25;100.00;52090.44;2057124;28;20064;-68
2023/06/18 03:44:58;;;;;;;;;;;;;;;-146.25;100.00;52112.72;2056291;28;20731;-68
2023/06/18 03:46:01;;;;;;;;;;;;;;;-146.25;100.00;52092.44;2056166;28;20807;-68
2023/06/18 03:47:05;;;;;;;;;;;;;;;-146.25;100.00;52133.00;2056307;28;20308;-68
2023/06/18 03:48:07;;;;;;;;;;;;;;;-146.25;100.00;52084.34;2056441;28;19929;-68
2023/06/18 03:49:17;;;;;;;;;;;;;;;-146.25;100.00;52094.47;2064324;28;20707;-68
2023/06/18 03:50:19;;;;;;;;;;;;;;;-146.25;100.00;52133.00;2065420;28;19925;-68
2023/06/18 03:51:23;;;;;;;;;;;;;;;-146.25;100.00;52084.34;2072099;28;24744;-68
2023/06/18 03:52:25;;;;;;;;;;;;;;;-146.25;100.00;52118.81;2064259;28;20048;-66
2023/06/18 03:53:28;;;;;;;;;;;;;;;-146.25;100.00;52084.34;2056818;28;19924;-68
2023/06/18 03:54:31;;;;;;;;;;;;;;;-146.25;100.00;52078.25;2056814;28;19922;-67
2023/06/18 03:55:35;;;;;;;;;;;;;;;-146.25;100.00;52090.44;2056811;28;20799;-68
2023/06/18 03:56:37;;;;;;;;;;;;;;;-146.25;100.00;52080.28;2064857;28;22889;-68
2023/06/18 03:57:41;;;;;;;;;;;;;;;-146.25;100.00;52100.56;2072696;28;19925;-68
2023/06/18 03:58:44;;;;;;;;;;;;;;;-146.25;100.00;52124.91;2064555;28;19929;-68
2023/06/18 03:59:46;;;;;;;;;;;;;;;-146.25;100.00;52126.91;2064024;28;23349;-68
2023/06/18 04:00:47;;;;;;;;;;;;;;;-146.25;100.00;52120.84;2064702;28;19977;-68
2023/06/18 04:01:50;;;;;;;;;;;;;;;-146.25;100.00;52108.66;2056812;28;20899;-68
2023/06/18 04:02:52;;;;;;;;;;;;;;;-146.25;100.00;52082.31;2056672;28;20021;-68
2023/06/18 04:03:54;;;;;;;;;;;;;;;-146.25;100.00;52112.72;2064757;28;19988;-68
2023/06/18 04:04:56;;;;;;;;;;;;;;;-146.25;100.00;52104.63;2071976;28;35251;-68
2023/06/18 04:05:57;;;;;;;;;;;;;;;-146.25;100.00;52122.88;2065142;28;21223;-68
2023/06/18 04:06:59;;;;;;;;;;;;;;;-146.25;100.00;52114.75;2072333;28;20072;-68
2023/06/18 04:08:02;;;;;;;;;;;;;;;-146.25;100.00;52116.78;2064581;28;20091;-67
2023/06/18 04:09:03;;;;;;;;;;;;;;;-146.25;100.00;52135.03;2064572;28;29043;-68
2023/06/18 04:10:05;;;;;;;;;;;;;;;-146.25;100.00;52110.69;2064572;28;23980;-68
2023/06/18 04:11:07;;;;;;;;;;;;;;;-146.25;100.00;52124.91;2064639;28;19922;-68
2023/06/18 04:12:11;;;;;;;;;;;;;;;-146.25;100.00;52086.38;2064675;28;19925;-68
2023/06/18 04:13:18;;;;;;;;;;;;;;;-146.25;100.00;52137.06;2065045;28;22030;-67
2023/06/18 04:14:20;;;;;;;;;;;;;;;-146.25;100.00;52133.00;2065240;28;20004;-68
2023/06/18 04:15:22;;;;;;;;;;;;;;;-146.25;100.00;52092.44;2072691;28;19928;-67
2023/06/18 04:16:27;;;;;;;;;;;;;;;-146.25;100.00;52108.66;2064250;28;20307;-68
2023/06/18 04:17:38;;;;;;;;;;;;;;;-146.25;100.00;52108.66;2056643;28;19927;-68
2023/06/18 04:18:43;;;;;;;;;;;;;;;-146.25;100.00;52096.50;2058233;28;20731;-68
2023/06/18 04:19:45;;;;;;;;;;;;;;;-146.25;100.00;52147.19;2056195;28;19934;-68
2023/06/18 04:20:48;;;;;;;;;;;;;;;-146.25;100.00;52147.19;2053264;28;20850;-68
2023/06/18 04:21:51;;;;;;;;;;;;;;;-146.25;100.00;52116.78;2056360;28;20162;-68
2023/06/18 04:22:53;;;;;;;;;;;;;;;-146.25;100.00;52147.19;2064624;28;20305;-68
2023/06/18 04:23:56;;;;;;;;;;;;;;;-146.25;100.00;52118.81;2072994;28;19925;-68
2023/06/18 04:24:59;;;;;;;;;;;;;;;-146.25;100.00;52096.50;2072666;28;19932;-68
2023/06/18 04:26:01;;;;;;;;;;;;;;;-146.25;100.00;52133.00;2064467;28;19929;-68
2023/06/18 04:27:03;;;;;;;;;;;;;;;-146.25;100.00;52106.66;2072925;28;20459;-68
2023/06/18 04:28:08;;;;;;;;;;;;;;;-146.25;100.00;52133.00;2072641;28;19926;-68
2023/06/18 04:29:10;;;;;;;;;;;;;;;-146.25;100.00;52137.06;2064424;28;19922;-68
2023/06/18 04:30:12;;;;;;;;;;;;;;;-146.25;100.00;52126.91;2072559;28;19922;-68
2023/06/18 04:31:15;;;;;;;;;;;;;;;-146.25;100.00;52064.06;2072512;28;20935;-68
2023/06/18 04:32:17;;;;;;;;;;;;;;;-146.25;100.00;52058.00;2072565;28;20023;-68
2023/06/18 04:33:21;;;;;;;;;;;;;;;-146.25;100.00;52122.88;2064447;28;19918;-68
2023/06/18 04:34:23;;;;;;;;;;;;;;;-146.25;100.00;52135.03;2064913;28;19929;-67
2023/06/18 04:35:29;;;;;;;;;;;;;;;-146.25;100.00;52137.06;2064375;28;20722;-68
2023/06/18 04:36:33;;;;;;;;;;;;;;;-146.25;100.00;52149.22;2064320;28;19922;-67
2023/06/18 04:37:38;;;;;;;;;;;;;;;-146.25;100.00;52120.84;2071912;28;20811;-67
2023/06/18 04:38:41;;;;;;;;;;;;;;;-146.25;100.00;52110.69;2072749;28;20603;-67
2023/06/18 04:39:43;;;;;;;;;;;;;;;-146.25;100.00;52128.94;2080903;28;20083;-67
2023/06/18 04:40:45;;;;;;;;;;;;;;;-146.25;100.00;52100.56;2071868;28;21163;-68
2023/06/18 04:41:46;;;;;;;;;;;;;;;-146.25;100.00;52104.63;2072728;28;19957;-67
2023/06/18 04:42:48;;;;;;;;;;;;;;;-146.25;100.00;52114.75;2072412;28;19977;-67
2023/06/18 04:43:56;;;;;;;;;;;;;;;-146.25;100.00;52149.22;2065221;28;19922;-68
2023/06/18 04:44:58;;;;;;;;;;;;;;;-146.25;100.00;52157.34;2072628;28;19918;-68
2023/06/18 04:46:00;;;;;;;;;;;;;;;-146.25;100.00;52135.03;2073315;28;19921;-66
2023/06/18 04:47:03;;;;;;;;;;;;;;;-146.25;100.00;52133.00;2072191;28;24461;-67
2023/06/18 04:48:08;;;;;;;;;;;;;;;-146.25;100.00;52159.34;2072574;28;20000;-67
2023/06/18 04:49:10;;;;;;;;;;;;;;;-146.25;100.00;52092.44;2072476;28;19922;-67
2023/06/18 04:50:12;;;;;;;;;;;;;;;-146.25;100.00;52120.84;2072697;28;19925;-67
2023/06/18 04:51:20;;;;;;;;;;;;;;;-146.25;100.00;52122.88;2064921;28;19914;-67
2023/06/18 04:52:22;;;;;;;;;;;;;;;-146.25;100.00;52124.91;2057812;28;20727;-67
2023/06/18 04:53:24;;;;;;;;;;;;;;;-146.25;100.00;52139.09;2056463;28;19926;-67
2023/06/18 04:54:26;;;;;;;;;;;;;;;-146.25;100.00;52147.19;2065048;28;20107;-68
2023/06/18 04:55:28;;;;;;;;;;;;;;;-146.25;100.00;52133.00;2072347;28;19921;-66
2023/06/18 04:56:30;;;;;;;;;;;;;;;-146.25;100.00;52139.09;2072143;28;19925;-67
2023/06/18 04:57:32;;;;;;;;;;;;;;;-146.25;100.00;52110.69;2063778;28;19922;-67
2023/06/18 04:58:36;;;;;;;;;;;;;;;-146.25;100.00;52161.38;2064110;28;20003;-67
2023/06/18 04:59:40;;;;;;;;;;;;;;;-146.25;100.00;52137.06;2064522;28;19980;-66
2023/06/18 05:00:44;;;;;;;;;;;;;;;-146.25;100.00;52155.31;2072500;28;19925;-67
2023/06/18 05:01:47;;;;;;;;;;;;;;;-146.25;100.00;52116.78;2064369;28;19961;-67
2023/06/18 05:02:49;;;;;;;;;;;;;;;-146.25;100.00;52165.44;2072433;28;19961;-67
2023/06/18 05:03:52;;;;;;;;;;;;;;;-146.25;100.00;52167.47;2072344;28;20757;-66
2023/06/18 05:04:54;;;;;;;;;;;;;;;-146.25;100.00;52165.44;2072417;28;23967;-66
2023/06/18 05:05:56;;;;;;;;;;;;;;;-146.25;100.00;52145.16;2064020;28;20072;-66
2023/06/18 05:06:58;;;;;;;;;;;;;;;-146.25;100.00;52149.22;2056411;28;20048;-66
2023/06/18 05:08:02;;;;;;;;;;;;;;;-146.25;100.00;52143.13;2064386;28;19973;-66
2023/06/18 05:09:04;;;;;;;;;;;;;;;-146.25;99.06;52181.66;2064779;28;20000;-66
2023/06/18 05:10:06;;;;;;;;;;;;;;;-146.25;94.39;52179.63;2072230;28;19918;-66
2023/06/18 05:11:09;;;;;;;;;;;;;;;-146.25;91.40;52149.22;2072245;28;19926;-66
2023/06/18 05:12:16;;;;;;;;;;;;;;;-146.25;89.43;52149.22;2072534;28;19925;-66
2023/06/18 05:13:18;;;;;;;;;;;;;;;-146.25;85.40;52147.19;2072449;28;20714;-66
2023/06/18 05:14:19;;;;;;;;;;;;;;;-146.25;84.95;52130.97;2071912;28;31458;-66
2023/06/18 05:15:22;;;;;;;;;;;;;;;-146.25;83.75;52098.53;2072381;28;20750;-67
2023/06/18 05:16:23;;;;;;;;;;;;;;;-146.25;81.09;52141.13;2072387;28;19979;-66
2023/06/18 05:17:30;;;;;;;;;;;;;;;-146.25;80.67;52157.34;2072743;28;19998;-66
2023/06/18 05:18:35;;;;;;;;;;;;;;;-146.25;79.05;52139.09;2064737;28;20584;-65